sensor_id;sensor_type;location;lat;lon;timestamp;temperature;humidity
2945;DHT22;1482;51.398;7.128;2024-03-02T00:00:13;8.30;1.00
2945;DHT22;1482;51.398;7.128;2024-03-02T00:02:44;8.40;1.00
2945;DHT22;1482;51.398;7.128;2024-03-02T00:05:15;8.40;1.00
2945;DHT22;1482;51.398;7.128;2024-03-02T00:07:42;8.40;1.00
2945;DHT22;1482;51.398;7.128;2024-03-02T00:10:10;8.40;1.00
2945;DHT22;1482;51.398;7.128;2024-03-02T00:12:36;8.40;1.00
2945;DHT22;1482;51.398;7.128;2024-03-02T00:15:51;8.40;1.00
2945;DHT22;1482;51.398;7.128;2024-03-02T00:17:54;8.40;1.00
2945;DHT22;1482;51.398;7.128;2024-03-02T00:20:22;8.40;1.00
2945;DHT22;1482;51.398;7.128;2024-03-02T00:22:48;8.40;1.00
2945;DHT22;1482;51.398;7.128;2024-03-02T00:25:14;8.40;1.00
2945;DHT22;1482;51.398;7.128;2024-03-02T00:27:40;8.40;1.00
2945;DHT22;1482;51.398;7.128;2024-03-02T00:30:46;8.40;1.00
2945;DHT22;1482;51.398;7.128;2024-03-02T00:33:16;8.40;1.00
2945;DHT22;1482;51.398;7.128;2024-03-02T00:35:44;8.50;1.00
2945;DHT22;1482;51.398;7.128;2024-03-02T00:38:10;8.40;1.00
2945;DHT22;1482;51.398;7.128;2024-03-02T00:40:35;8.50;1.00
2945;DHT22;1482;51.398;7.128;2024-03-02T00:43:02;8.50;1.00
2945;DHT22;1482;51.398;7.128;2024-03-02T00:45:28;8.50;1.00
2945;DHT22;1482;51.398;7.128;2024-03-02T00:47:54;8.60;1.00
2945;DHT22;1482;51.398;7.128;2024-03-02T00:50:20;8.60;1.00
2945;DHT22;1482;51.398;7.128;2024-03-02T00:52:47;8.60;1.00
2945;DHT22;1482;51.398;7.128;2024-03-02T00:55:14;8.60;1.00
2945;DHT22;1482;51.398;7.128;2024-03-02T00:57:39;8.60;1.00
2945;DHT22;1482;51.398;7.128;2024-03-02T01:00:06;8.60;1.00
2945;DHT22;1482;51.398;7.128;2024-03-02T01:02:35;8.70;1.00
2945;DHT22;1482;51.398;7.128;2024-03-02T01:05:00;8.60;1.00
2945;DHT22;1482;51.398;7.128;2024-03-02T01:07:26;8.60;1.00
2945;DHT22;1482;51.398;7.128;2024-03-02T01:09:51;8.70;1.00
2945;DHT22;1482;51.398;7.128;2024-03-02T01:12:17;8.70;1.00
2945;DHT22;1482;51.398;7.128;2024-03-02T01:14:42;8.70;1.00
2945;DHT22;1482;51.398;7.128;2024-03-02T01:17:08;8.70;1.00
2945;DHT22;1482;51.398;7.128;2024-03-02T01:19:33;8.80;1.00
2945;DHT22;1482;51.398;7.128;2024-03-02T01:21:59;8.90;1.00
2945;DHT22;1482;51.398;7.128;2024-03-02T01:24:25;8.90;1.00
2945;DHT22;1482;51.398;7.128;2024-03-02T01:26:50;9.00;1.00
2945;DHT22;1482;51.398;7.128;2024-03-02T01:29:16;9.00;1.00
2945;DHT22;1482;51.398;7.128;2024-03-02T01:31:41;9.10;1.00
2945;DHT22;1482;51.398;7.128;2024-03-02T01:34:10;9.10;1.00
2945;DHT22;1482;51.398;7.128;2024-03-02T01:36:37;9.10;1.00
2945;DHT22;1482;51.398;7.128;2024-03-02T01:39:03;9.20;1.00
2945;DHT22;1482;51.398;7.128;2024-03-02T01:41:28;9.10;1.00
2945;DHT22;1482;51.398;7.128;2024-03-02T01:43:54;9.20;1.00
2945;DHT22;1482;51.398;7.128;2024-03-02T01:46:19;9.10;1.00
2945;DHT22;1482;51.398;7.128;2024-03-02T01:48:45;9.10;1.00
2945;DHT22;1482;51.398;7.128;2024-03-02T01:51:10;9.10;1.00
2945;DHT22;1482;51.398;7.128;2024-03-02T01:53:36;9.20;1.00
2945;DHT22;1482;51.398;7.128;2024-03-02T01:56:02;9.30;1.00
2945;DHT22;1482;51.398;7.128;2024-03-02T01:58:28;9.20;1.00
2945;DHT22;1482;51.398;7.128;2024-03-02T02:00:53;9.30;1.00
2945;DHT22;1482;51.398;7.128;2024-03-02T02:03:19;9.20;1.00
2945;DHT22;1482;51.398;7.128;2024-03-02T02:05:45;9.10;1.00
2945;DHT22;1482;51.398;7.128;2024-03-02T02:08:12;9.10;1.00
2945;DHT22;1482;51.398;7.128;2024-03-02T02:10:38;9.10;1.00
2945;DHT22;1482;51.398;7.128;2024-03-02T02:13:03;9.00;1.00
2945;DHT22;1482;51.398;7.128;2024-03-02T02:15:29;9.00;1.00
2945;DHT22;1482;51.398;7.128;2024-03-02T02:17:56;8.90;1.00
2945;DHT22;1482;51.398;7.128;2024-03-02T02:20:23;9.10;1.00
2945;DHT22;1482;51.398;7.128;2024-03-02T02:23:02;9.00;1.00
2945;DHT22;1482;51.398;7.128;2024-03-02T02:25:29;9.00;1.00
2945;DHT22;1482;51.398;7.128;2024-03-02T02:27:55;9.00;1.00
2945;DHT22;1482;51.398;7.128;2024-03-02T02:30:22;9.00;1.00
2945;DHT22;1482;51.398;7.128;2024-03-02T02:32:48;8.90;1.00
2945;DHT22;1482;51.398;7.128;2024-03-02T02:35:14;9.00;1.00
2945;DHT22;1482;51.398;7.128;2024-03-02T02:37:40;9.00;1.00
2945;DHT22;1482;51.398;7.128;2024-03-02T02:40:07;9.10;1.00
2945;DHT22;1482;51.398;7.128;2024-03-02T02:42:32;9.00;1.00
2945;DHT22;1482;51.398;7.128;2024-03-02T02:44:58;9.10;1.00
2945;DHT22;1482;51.398;7.128;2024-03-02T02:47:23;9.00;1.00
2945;DHT22;1482;51.398;7.128;2024-03-02T02:49:49;9.10;1.00
2945;DHT22;1482;51.398;7.128;2024-03-02T02:52:14;9.10;1.00
2945;DHT22;1482;51.398;7.128;2024-03-02T02:54:40;9.20;1.00
2945;DHT22;1482;51.398;7.128;2024-03-02T02:57:06;9.20;1.00
2945;DHT22;1482;51.398;7.128;2024-03-02T02:59:31;9.20;1.00
2945;DHT22;1482;51.398;7.128;2024-03-02T03:01:57;9.20;1.00
2945;DHT22;1482;51.398;7.128;2024-03-02T03:04:22;9.10;1.00
2945;DHT22;1482;51.398;7.128;2024-03-02T03:06:48;9.10;1.00
2945;DHT22;1482;51.398;7.128;2024-03-02T03:09:13;9.10;1.00
2945;DHT22;1482;51.398;7.128;2024-03-02T03:11:39;9.00;1.00
2945;DHT22;1482;51.398;7.128;2024-03-02T03:14:04;9.20;1.00
2945;DHT22;1482;51.398;7.128;2024-03-02T03:16:30;9.10;1.00
2945;DHT22;1482;51.398;7.128;2024-03-02T03:18:56;9.10;1.00
2945;DHT22;1482;51.398;7.128;2024-03-02T03:21:21;9.20;1.00
2945;DHT22;1482;51.398;7.128;2024-03-02T03:23:47;9.20;1.00
2945;DHT22;1482;51.398;7.128;2024-03-02T03:26:12;9.20;1.00
2945;DHT22;1482;51.398;7.128;2024-03-02T03:28:38;9.30;1.00
2945;DHT22;1482;51.398;7.128;2024-03-02T03:31:04;9.20;1.00
2945;DHT22;1482;51.398;7.128;2024-03-02T03:33:29;9.30;1.00
2945;DHT22;1482;51.398;7.128;2024-03-02T03:35:55;9.20;1.00
2945;DHT22;1482;51.398;7.128;2024-03-02T03:38:20;9.30;1.00
2945;DHT22;1482;51.398;7.128;2024-03-02T03:40:46;9.30;1.00
2945;DHT22;1482;51.398;7.128;2024-03-02T03:43:12;9.30;1.00
2945;DHT22;1482;51.398;7.128;2024-03-02T03:45:38;9.30;1.00
2945;DHT22;1482;51.398;7.128;2024-03-02T03:48:04;9.30;1.00
2945;DHT22;1482;51.398;7.128;2024-03-02T03:50:29;9.40;1.00
2945;DHT22;1482;51.398;7.128;2024-03-02T03:52:55;9.30;1.00
2945;DHT22;1482;51.398;7.128;2024-03-02T03:55:20;9.40;1.00
2945;DHT22;1482;51.398;7.128;2024-03-02T03:57:46;9.40;1.00
2945;DHT22;1482;51.398;7.128;2024-03-02T04:00:12;9.40;1.00
2945;DHT22;1482;51.398;7.128;2024-03-02T04:02:38;9.30;1.00
2945;DHT22;1482;51.398;7.128;2024-03-02T04:05:03;9.30;1.00
2945;DHT22;1482;51.398;7.128;2024-03-02T04:07:35;9.30;1.00
2945;DHT22;1482;51.398;7.128;2024-03-02T04:10:11;9.30;1.00
2945;DHT22;1482;51.398;7.128;2024-03-02T04:12:38;9.40;1.00
2945;DHT22;1482;51.398;7.128;2024-03-02T04:15:05;9.30;1.00
2945;DHT22;1482;51.398;7.128;2024-03-02T04:17:32;9.30;1.00
2945;DHT22;1482;51.398;7.128;2024-03-02T04:19:59;9.40;1.00
2945;DHT22;1482;51.398;7.128;2024-03-02T04:22:25;9.30;1.00
2945;DHT22;1482;51.398;7.128;2024-03-02T04:24:50;9.30;1.00
2945;DHT22;1482;51.398;7.128;2024-03-02T04:27:16;9.30;1.00
2945;DHT22;1482;51.398;7.128;2024-03-02T04:29:41;9.20;1.00
2945;DHT22;1482;51.398;7.128;2024-03-02T04:32:07;9.30;1.00
2945;DHT22;1482;51.398;7.128;2024-03-02T04:34:32;9.30;1.00
2945;DHT22;1482;51.398;7.128;2024-03-02T04:36:58;9.30;1.00
2945;DHT22;1482;51.398;7.128;2024-03-02T04:39:23;9.20;1.00
2945;DHT22;1482;51.398;7.128;2024-03-02T04:41:50;9.10;1.00
2945;DHT22;1482;51.398;7.128;2024-03-02T04:44:15;9.10;1.00
2945;DHT22;1482;51.398;7.128;2024-03-02T04:46:41;9.00;1.00
2945;DHT22;1482;51.398;7.128;2024-03-02T04:49:06;9.00;1.00
2945;DHT22;1482;51.398;7.128;2024-03-02T04:51:32;9.00;1.00
2945;DHT22;1482;51.398;7.128;2024-03-02T04:53:57;9.00;1.00
2945;DHT22;1482;51.398;7.128;2024-03-02T04:56:23;8.90;1.00
2945;DHT22;1482;51.398;7.128;2024-03-02T04:59:05;8.90;1.00
2945;DHT22;1482;51.398;7.128;2024-03-02T05:01:31;8.90;1.00
2945;DHT22;1482;51.398;7.128;2024-03-02T05:03:57;8.80;1.00
2945;DHT22;1482;51.398;7.128;2024-03-02T05:06:23;8.80;1.00
2945;DHT22;1482;51.398;7.128;2024-03-02T05:08:49;8.70;1.00
2945;DHT22;1482;51.398;7.128;2024-03-02T05:11:14;8.80;1.00
2945;DHT22;1482;51.398;7.128;2024-03-02T05:14:15;8.70;1.00
2945;DHT22;1482;51.398;7.128;2024-03-02T05:16:41;8.60;1.00
2945;DHT22;1482;51.398;7.128;2024-03-02T05:19:09;8.60;1.00
2945;DHT22;1482;51.398;7.128;2024-03-02T05:21:35;8.60;1.00
2945;DHT22;1482;51.398;7.128;2024-03-02T05:24:00;8.50;1.00
2945;DHT22;1482;51.398;7.128;2024-03-02T05:26:26;8.50;1.00
2945;DHT22;1482;51.398;7.128;2024-03-02T05:28:52;8.50;1.00
2945;DHT22;1482;51.398;7.128;2024-03-02T05:31:17;8.50;1.00
2945;DHT22;1482;51.398;7.128;2024-03-02T05:33:43;8.50;1.00
2945;DHT22;1482;51.398;7.128;2024-03-02T05:36:09;8.40;1.00
2945;DHT22;1482;51.398;7.128;2024-03-02T05:38:35;8.30;1.00
2945;DHT22;1482;51.398;7.128;2024-03-02T05:41:01;8.30;1.00
2945;DHT22;1482;51.398;7.128;2024-03-02T05:43:26;8.30;1.00
2945;DHT22;1482;51.398;7.128;2024-03-02T05:45:52;8.30;1.00
2945;DHT22;1482;51.398;7.128;2024-03-02T05:48:18;8.20;1.00
2945;DHT22;1482;51.398;7.128;2024-03-02T05:50:43;8.20;1.00
2945;DHT22;1482;51.398;7.128;2024-03-02T05:53:09;8.20;1.00
2945;DHT22;1482;51.398;7.128;2024-03-02T05:55:34;8.20;1.00
2945;DHT22;1482;51.398;7.128;2024-03-02T05:58:00;8.20;1.00
2945;DHT22;1482;51.398;7.128;2024-03-02T06:00:32;8.20;1.00
2945;DHT22;1482;51.398;7.128;2024-03-02T06:02:57;8.20;1.00
2945;DHT22;1482;51.398;7.128;2024-03-02T06:05:23;8.20;1.00
2945;DHT22;1482;51.398;7.128;2024-03-02T06:07:50;8.20;1.00
2945;DHT22;1482;51.398;7.128;2024-03-02T06:10:15;8.10;1.00
2945;DHT22;1482;51.398;7.128;2024-03-02T06:12:41;8.10;1.00
2945;DHT22;1482;51.398;7.128;2024-03-02T06:15:07;8.10;1.00
2945;DHT22;1482;51.398;7.128;2024-03-02T06:17:35;8.10;1.00
2945;DHT22;1482;51.398;7.128;2024-03-02T06:20:01;8.10;1.00
2945;DHT22;1482;51.398;7.128;2024-03-02T06:22:26;8.10;1.00
2945;DHT22;1482;51.398;7.128;2024-03-02T06:24:52;8.00;1.00
2945;DHT22;1482;51.398;7.128;2024-03-02T06:27:17;8.00;1.00
2945;DHT22;1482;51.398;7.128;2024-03-02T06:29:43;8.00;1.00
2945;DHT22;1482;51.398;7.128;2024-03-02T06:32:08;8.10;1.00
2945;DHT22;1482;51.398;7.128;2024-03-02T06:34:34;8.20;1.00
2945;DHT22;1482;51.398;7.128;2024-03-02T06:36:59;8.20;1.00
2945;DHT22;1482;51.398;7.128;2024-03-02T06:39:25;8.20;1.00
2945;DHT22;1482;51.398;7.128;2024-03-02T06:41:51;8.20;1.00
2945;DHT22;1482;51.398;7.128;2024-03-02T06:44:17;8.30;1.00
2945;DHT22;1482;51.398;7.128;2024-03-02T06:46:42;8.40;1.00
2945;DHT22;1482;51.398;7.128;2024-03-02T06:49:08;8.60;1.00
2945;DHT22;1482;51.398;7.128;2024-03-02T06:51:35;8.60;1.00
2945;DHT22;1482;51.398;7.128;2024-03-02T06:54:01;8.80;1.00
2945;DHT22;1482;51.398;7.128;2024-03-02T06:56:27;8.80;1.00
2945;DHT22;1482;51.398;7.128;2024-03-02T06:58:52;8.90;1.00
2945;DHT22;1482;51.398;7.128;2024-03-02T07:01:17;9.00;1.00
2945;DHT22;1482;51.398;7.128;2024-03-02T07:03:43;9.00;1.00
2945;DHT22;1482;51.398;7.128;2024-03-02T07:06:09;9.10;1.00
2945;DHT22;1482;51.398;7.128;2024-03-02T07:08:35;9.40;1.00
2945;DHT22;1482;51.398;7.128;2024-03-02T07:11:00;9.80;1.00
2945;DHT22;1482;51.398;7.128;2024-03-02T07:13:26;9.90;1.00
2945;DHT22;1482;51.398;7.128;2024-03-02T07:15:52;10.30;1.00
2945;DHT22;1482;51.398;7.128;2024-03-02T07:18:32;10.30;1.00
2945;DHT22;1482;51.398;7.128;2024-03-02T07:21:07;10.60;1.00
2945;DHT22;1482;51.398;7.128;2024-03-02T07:23:32;11.20;1.00
2945;DHT22;1482;51.398;7.128;2024-03-02T07:25:58;12.70;1.00
2945;DHT22;1482;51.398;7.128;2024-03-02T07:28:25;14.30;1.00
2945;DHT22;1482;51.398;7.128;2024-03-02T07:31:03;16.30;1.00
2945;DHT22;1482;51.398;7.128;2024-03-02T07:33:30;18.40;1.00
2945;DHT22;1482;51.398;7.128;2024-03-02T07:35:56;20.30;1.00
2945;DHT22;1482;51.398;7.128;2024-03-02T07:38:22;22.00;1.00
2945;DHT22;1482;51.398;7.128;2024-03-02T07:40:48;23.70;1.00
2945;DHT22;1482;51.398;7.128;2024-03-02T07:43:17;24.10;1.00
2945;DHT22;1482;51.398;7.128;2024-03-02T07:45:43;24.70;1.00
2945;DHT22;1482;51.398;7.128;2024-03-02T07:48:09;25.40;1.00
2945;DHT22;1482;51.398;7.128;2024-03-02T07:50:34;25.70;1.00
2945;DHT22;1482;51.398;7.128;2024-03-02T07:53:01;26.80;1.00
2945;DHT22;1482;51.398;7.128;2024-03-02T07:55:26;27.00;1.00
2945;DHT22;1482;51.398;7.128;2024-03-02T07:57:52;27.60;1.00
2945;DHT22;1482;51.398;7.128;2024-03-02T08:00:18;27.70;1.00
2945;DHT22;1482;51.398;7.128;2024-03-02T08:02:43;26.70;1.00
2945;DHT22;1482;51.398;7.128;2024-03-02T08:05:09;27.80;1.00
2945;DHT22;1482;51.398;7.128;2024-03-02T08:07:35;26.80;1.00
2945;DHT22;1482;51.398;7.128;2024-03-02T08:10:01;27.60;1.00
2945;DHT22;1482;51.398;7.128;2024-03-02T08:12:26;27.50;1.00
2945;DHT22;1482;51.398;7.128;2024-03-02T08:14:52;27.10;1.00
2945;DHT22;1482;51.398;7.128;2024-03-02T08:17:17;27.10;1.00
2945;DHT22;1482;51.398;7.128;2024-03-02T08:19:43;27.20;1.00
2945;DHT22;1482;51.398;7.128;2024-03-02T08:22:09;27.70;1.00
2945;DHT22;1482;51.398;7.128;2024-03-02T08:24:35;28.20;1.00
2945;DHT22;1482;51.398;7.128;2024-03-02T08:27:01;27.80;1.00
2945;DHT22;1482;51.398;7.128;2024-03-02T08:29:27;26.80;1.00
2945;DHT22;1482;51.398;7.128;2024-03-02T08:31:53;26.00;1.00
2945;DHT22;1482;51.398;7.128;2024-03-02T08:34:19;26.60;1.00
2945;DHT22;1482;51.398;7.128;2024-03-02T08:36:46;27.70;1.00
2945;DHT22;1482;51.398;7.128;2024-03-02T08:39:11;28.60;1.00
2945;DHT22;1482;51.398;7.128;2024-03-02T08:41:44;29.80;1.00
2945;DHT22;1482;51.398;7.128;2024-03-02T08:44:10;30.30;1.00
2945;DHT22;1482;51.398;7.128;2024-03-02T08:46:35;30.60;1.00
2945;DHT22;1482;51.398;7.128;2024-03-02T08:49:01;31.10;1.00
2945;DHT22;1482;51.398;7.128;2024-03-02T08:51:27;32.10;1.00
2945;DHT22;1482;51.398;7.128;2024-03-02T08:53:52;31.30;1.00
2945;DHT22;1482;51.398;7.128;2024-03-02T08:56:18;31.10;1.00
2945;DHT22;1482;51.398;7.128;2024-03-02T08:58:45;29.70;1.00
2945;DHT22;1482;51.398;7.128;2024-03-02T09:01:11;30.20;1.00
2945;DHT22;1482;51.398;7.128;2024-03-02T09:03:37;31.60;1.00
2945;DHT22;1482;51.398;7.128;2024-03-02T09:06:03;31.60;1.00
2945;DHT22;1482;51.398;7.128;2024-03-02T09:08:28;30.40;1.00
2945;DHT22;1482;51.398;7.128;2024-03-02T09:10:55;31.40;1.00
2945;DHT22;1482;51.398;7.128;2024-03-02T09:13:21;31.30;1.00
2945;DHT22;1482;51.398;7.128;2024-03-02T09:15:47;31.70;1.00
2945;DHT22;1482;51.398;7.128;2024-03-02T09:18:13;30.50;1.00
2945;DHT22;1482;51.398;7.128;2024-03-02T09:20:38;30.40;1.00
2945;DHT22;1482;51.398;7.128;2024-03-02T09:23:04;29.80;1.00
2945;DHT22;1482;51.398;7.128;2024-03-02T09:25:30;29.60;1.00
2945;DHT22;1482;51.398;7.128;2024-03-02T09:27:55;28.60;1.00
2945;DHT22;1482;51.398;7.128;2024-03-02T09:30:21;28.50;1.00
2945;DHT22;1482;51.398;7.128;2024-03-02T09:32:46;27.90;1.00
2945;DHT22;1482;51.398;7.128;2024-03-02T09:35:12;28.40;1.00
2945;DHT22;1482;51.398;7.128;2024-03-02T09:37:37;29.50;1.00
2945;DHT22;1482;51.398;7.128;2024-03-02T09:40:03;28.70;1.00
2945;DHT22;1482;51.398;7.128;2024-03-02T09:42:30;27.80;1.00
2945;DHT22;1482;51.398;7.128;2024-03-02T09:44:56;28.60;1.00
2945;DHT22;1482;51.398;7.128;2024-03-02T09:47:22;29.00;1.00
2945;DHT22;1482;51.398;7.128;2024-03-02T09:49:47;28.90;1.00
2945;DHT22;1482;51.398;7.128;2024-03-02T09:52:14;27.50;1.00
2945;DHT22;1482;51.398;7.128;2024-03-02T09:54:40;28.10;1.00
2945;DHT22;1482;51.398;7.128;2024-03-02T09:57:05;28.30;1.00
2945;DHT22;1482;51.398;7.128;2024-03-02T09:59:31;27.60;1.00
2945;DHT22;1482;51.398;7.128;2024-03-02T10:02:00;27.50;1.00
2945;DHT22;1482;51.398;7.128;2024-03-02T10:04:28;27.90;1.00
2945;DHT22;1482;51.398;7.128;2024-03-02T10:09:38;29.60;1.00
2945;DHT22;1482;51.398;7.128;2024-03-02T10:12:05;28.80;1.00
2945;DHT22;1482;51.398;7.128;2024-03-02T10:14:31;27.20;1.00
2945;DHT22;1482;51.398;7.128;2024-03-02T10:17:02;27.10;1.00
2945;DHT22;1482;51.398;7.128;2024-03-02T10:19:29;26.10;1.00
2945;DHT22;1482;51.398;7.128;2024-03-02T10:21:59;25.60;1.00
2945;DHT22;1482;51.398;7.128;2024-03-02T10:24:25;25.10;1.00
2945;DHT22;1482;51.398;7.128;2024-03-02T10:26:51;23.90;1.00
2945;DHT22;1482;51.398;7.128;2024-03-02T10:29:17;23.00;1.00
2945;DHT22;1482;51.398;7.128;2024-03-02T10:31:44;22.10;1.00
2945;DHT22;1482;51.398;7.128;2024-03-02T10:34:13;21.20;1.00
2945;DHT22;1482;51.398;7.128;2024-03-02T10:36:43;20.40;1.00
2945;DHT22;1482;51.398;7.128;2024-03-02T10:39:09;19.60;1.00
2945;DHT22;1482;51.398;7.128;2024-03-02T10:41:36;19.30;1.00
2945;DHT22;1482;51.398;7.128;2024-03-02T10:44:03;18.60;1.00
2945;DHT22;1482;51.398;7.128;2024-03-02T10:46:30;18.40;1.00
2945;DHT22;1482;51.398;7.128;2024-03-02T10:48:57;18.50;1.00
2945;DHT22;1482;51.398;7.128;2024-03-02T10:51:26;18.40;1.00
2945;DHT22;1482;51.398;7.128;2024-03-02T10:53:53;18.50;1.00
2945;DHT22;1482;51.398;7.128;2024-03-02T10:56:28;18.40;1.00
2945;DHT22;1482;51.398;7.128;2024-03-02T11:01:38;18.30;1.00
2945;DHT22;1482;51.398;7.128;2024-03-02T11:04:04;18.30;1.00
2945;DHT22;1482;51.398;7.128;2024-03-02T11:06:34;18.20;1.00
2945;DHT22;1482;51.398;7.128;2024-03-02T11:09:06;17.60;1.00
2945;DHT22;1482;51.398;7.128;2024-03-02T11:11:36;17.50;1.00
2945;DHT22;1482;51.398;7.128;2024-03-02T11:14:04;17.10;1.00
2945;DHT22;1482;51.398;7.128;2024-03-02T11:16:37;16.80;1.00
2945;DHT22;1482;51.398;7.128;2024-03-02T11:19:14;16.80;1.00
2945;DHT22;1482;51.398;7.128;2024-03-02T11:21:40;17.10;1.00
2945;DHT22;1482;51.398;7.128;2024-03-02T11:26:47;17.20;1.00
2945;DHT22;1482;51.398;7.128;2024-03-02T11:32:20;17.40;1.00
2945;DHT22;1482;51.398;7.128;2024-03-02T11:34:49;17.20;1.00
2945;DHT22;1482;51.398;7.128;2024-03-02T11:37:16;17.40;1.00
2945;DHT22;1482;51.398;7.128;2024-03-02T11:39:45;17.50;1.00
2945;DHT22;1482;51.398;7.128;2024-03-02T11:42:12;17.60;1.00
2945;DHT22;1482;51.398;7.128;2024-03-02T11:44:39;17.40;1.00
2945;DHT22;1482;51.398;7.128;2024-03-02T11:47:08;17.40;1.00
2945;DHT22;1482;51.398;7.128;2024-03-02T11:49:44;17.40;1.00
2945;DHT22;1482;51.398;7.128;2024-03-02T11:52:14;17.50;1.00
2945;DHT22;1482;51.398;7.128;2024-03-02T11:54:42;17.60;1.00
2945;DHT22;1482;51.398;7.128;2024-03-02T11:57:13;17.50;1.00
2945;DHT22;1482;51.398;7.128;2024-03-02T11:59:40;17.60;1.00
2945;DHT22;1482;51.398;7.128;2024-03-02T12:02:06;17.20;1.00
2945;DHT22;1482;51.398;7.128;2024-03-02T12:04:32;17.20;1.00
2945;DHT22;1482;51.398;7.128;2024-03-02T12:06:59;17.10;1.00
2945;DHT22;1482;51.398;7.128;2024-03-02T12:09:28;17.10;1.00
2945;DHT22;1482;51.398;7.128;2024-03-02T12:12:08;17.20;1.00
2945;DHT22;1482;51.398;7.128;2024-03-02T12:14:35;17.20;1.00
2945;DHT22;1482;51.398;7.128;2024-03-02T12:17:01;17.10;1.00
2945;DHT22;1482;51.398;7.128;2024-03-02T12:19:28;16.90;1.00
2945;DHT22;1482;51.398;7.128;2024-03-02T12:21:56;17.00;1.00
2945;DHT22;1482;51.398;7.128;2024-03-02T12:24:21;17.00;1.00
2945;DHT22;1482;51.398;7.128;2024-03-02T12:26:51;16.90;1.00
2945;DHT22;1482;51.398;7.128;2024-03-02T12:29:18;17.00;1.00
2945;DHT22;1482;51.398;7.128;2024-03-02T12:31:44;17.00;1.00
2945;DHT22;1482;51.398;7.128;2024-03-02T12:34:14;17.00;1.00
2945;DHT22;1482;51.398;7.128;2024-03-02T12:36:40;16.90;1.00
2945;DHT22;1482;51.398;7.128;2024-03-02T12:39:10;16.90;1.00
2945;DHT22;1482;51.398;7.128;2024-03-02T12:41:39;16.80;1.00
2945;DHT22;1482;51.398;7.128;2024-03-02T12:44:05;16.80;1.00
2945;DHT22;1482;51.398;7.128;2024-03-02T12:46:31;16.90;1.00
2945;DHT22;1482;51.398;7.128;2024-03-02T12:48:58;16.80;1.00
2945;DHT22;1482;51.398;7.128;2024-03-02T12:51:24;16.80;1.00
2945;DHT22;1482;51.398;7.128;2024-03-02T12:54:09;16.60;1.00
2945;DHT22;1482;51.398;7.128;2024-03-02T12:56:36;16.60;1.00
2945;DHT22;1482;51.398;7.128;2024-03-02T12:59:03;16.30;1.00
2945;DHT22;1482;51.398;7.128;2024-03-02T13:01:29;16.30;1.00
2945;DHT22;1482;51.398;7.128;2024-03-02T13:03:57;16.40;1.00
2945;DHT22;1482;51.398;7.128;2024-03-02T13:06:24;16.60;1.00
2945;DHT22;1482;51.398;7.128;2024-03-02T13:08:52;16.30;1.00
2945;DHT22;1482;51.398;7.128;2024-03-02T13:11:18;16.30;1.00
2945;DHT22;1482;51.398;7.128;2024-03-02T13:13:44;16.10;1.00
2945;DHT22;1482;51.398;7.128;2024-03-02T13:16:10;15.80;1.00
2945;DHT22;1482;51.398;7.128;2024-03-02T13:18:38;15.50;1.00
2945;DHT22;1482;51.398;7.128;2024-03-02T13:21:03;15.20;1.00
2945;DHT22;1482;51.398;7.128;2024-03-02T13:23:29;15.20;1.00
2945;DHT22;1482;51.398;7.128;2024-03-02T13:25:56;15.20;1.00
2945;DHT22;1482;51.398;7.128;2024-03-02T13:28:23;15.20;1.00
2945;DHT22;1482;51.398;7.128;2024-03-02T13:30:49;15.00;1.00
2945;DHT22;1482;51.398;7.128;2024-03-02T13:33:14;15.00;1.00
2945;DHT22;1482;51.398;7.128;2024-03-02T13:35:40;14.90;1.00
2945;DHT22;1482;51.398;7.128;2024-03-02T13:38:06;14.70;1.00
2945;DHT22;1482;51.398;7.128;2024-03-02T13:40:31;14.70;1.00
2945;DHT22;1482;51.398;7.128;2024-03-02T13:43:01;14.70;1.00
2945;DHT22;1482;51.398;7.128;2024-03-02T13:45:27;14.90;1.00
2945;DHT22;1482;51.398;7.128;2024-03-02T13:47:53;14.70;1.00
2945;DHT22;1482;51.398;7.128;2024-03-02T13:50:19;14.80;1.00
2945;DHT22;1482;51.398;7.128;2024-03-02T13:52:45;14.90;1.00
2945;DHT22;1482;51.398;7.128;2024-03-02T13:55:10;15.00;1.00
2945;DHT22;1482;51.398;7.128;2024-03-02T13:57:36;14.80;1.00
2945;DHT22;1482;51.398;7.128;2024-03-02T14:00:02;14.70;1.00
2945;DHT22;1482;51.398;7.128;2024-03-02T14:02:28;14.50;1.00
2945;DHT22;1482;51.398;7.128;2024-03-02T14:04:54;14.60;1.00
2945;DHT22;1482;51.398;7.128;2024-03-02T14:07:19;14.80;1.00
2945;DHT22;1482;51.398;7.128;2024-03-02T14:09:45;14.80;1.00
2945;DHT22;1482;51.398;7.128;2024-03-02T14:12:12;14.90;1.00
2945;DHT22;1482;51.398;7.128;2024-03-02T14:14:38;15.10;1.00
2945;DHT22;1482;51.398;7.128;2024-03-02T14:17:04;15.10;1.00
2945;DHT22;1482;51.398;7.128;2024-03-02T14:19:32;15.00;1.00
2945;DHT22;1482;51.398;7.128;2024-03-02T14:21:58;14.90;1.00
2945;DHT22;1482;51.398;7.128;2024-03-02T14:24:23;15.10;1.00
2945;DHT22;1482;51.398;7.128;2024-03-02T14:26:51;15.10;1.00
2945;DHT22;1482;51.398;7.128;2024-03-02T14:29:18;15.00;1.00
2945;DHT22;1482;51.398;7.128;2024-03-02T14:31:43;15.00;1.00
2945;DHT22;1482;51.398;7.128;2024-03-02T14:34:09;15.00;1.00
2945;DHT22;1482;51.398;7.128;2024-03-02T14:36:35;14.90;1.00
2945;DHT22;1482;51.398;7.128;2024-03-02T14:39:00;15.00;1.00
2945;DHT22;1482;51.398;7.128;2024-03-02T14:41:26;14.90;1.00
2945;DHT22;1482;51.398;7.128;2024-03-02T14:43:51;14.90;1.00
2945;DHT22;1482;51.398;7.128;2024-03-02T14:46:17;15.00;1.00
2945;DHT22;1482;51.398;7.128;2024-03-02T14:48:44;15.10;1.00
2945;DHT22;1482;51.398;7.128;2024-03-02T14:51:10;15.00;1.00
2945;DHT22;1482;51.398;7.128;2024-03-02T14:53:36;14.90;1.00
2945;DHT22;1482;51.398;7.128;2024-03-02T14:56:03;14.90;1.00
2945;DHT22;1482;51.398;7.128;2024-03-02T14:58:29;14.80;1.00
2945;DHT22;1482;51.398;7.128;2024-03-02T15:00:55;14.80;1.00
2945;DHT22;1482;51.398;7.128;2024-03-02T15:03:20;14.80;1.00
2945;DHT22;1482;51.398;7.128;2024-03-02T15:05:46;14.90;1.00
2945;DHT22;1482;51.398;7.128;2024-03-02T15:08:12;15.00;1.00
2945;DHT22;1482;51.398;7.128;2024-03-02T15:10:37;15.00;1.00
2945;DHT22;1482;51.398;7.128;2024-03-02T15:13:03;14.90;1.00
2945;DHT22;1482;51.398;7.128;2024-03-02T15:15:29;14.70;1.00
2945;DHT22;1482;51.398;7.128;2024-03-02T15:17:54;14.70;1.00
2945;DHT22;1482;51.398;7.128;2024-03-02T15:20:20;14.60;1.00
2945;DHT22;1482;51.398;7.128;2024-03-02T15:22:47;14.60;1.00
2945;DHT22;1482;51.398;7.128;2024-03-02T15:25:14;14.60;1.00
2945;DHT22;1482;51.398;7.128;2024-03-02T15:27:42;14.60;1.00
2945;DHT22;1482;51.398;7.128;2024-03-02T15:30:07;14.70;1.00
2945;DHT22;1482;51.398;7.128;2024-03-02T15:32:33;14.60;1.00
2945;DHT22;1482;51.398;7.128;2024-03-02T15:34:59;14.60;1.00
2945;DHT22;1482;51.398;7.128;2024-03-02T15:37:25;14.60;1.00
2945;DHT22;1482;51.398;7.128;2024-03-02T15:39:51;14.60;1.00
2945;DHT22;1482;51.398;7.128;2024-03-02T15:42:16;14.60;1.00
2945;DHT22;1482;51.398;7.128;2024-03-02T15:44:43;14.70;1.00
2945;DHT22;1482;51.398;7.128;2024-03-02T15:47:09;14.60;1.00
2945;DHT22;1482;51.398;7.128;2024-03-02T15:49:34;14.60;1.00
2945;DHT22;1482;51.398;7.128;2024-03-02T15:52:00;14.50;1.00
2945;DHT22;1482;51.398;7.128;2024-03-02T15:54:27;14.30;1.00
2945;DHT22;1482;51.398;7.128;2024-03-02T15:56:52;14.10;1.00
2945;DHT22;1482;51.398;7.128;2024-03-02T15:59:18;14.20;1.00
2945;DHT22;1482;51.398;7.128;2024-03-02T16:01:44;14.20;1.00
2945;DHT22;1482;51.398;7.128;2024-03-02T16:04:09;14.00;1.00
2945;DHT22;1482;51.398;7.128;2024-03-02T16:06:35;14.10;1.00
2945;DHT22;1482;51.398;7.128;2024-03-02T16:09:00;14.00;1.00
2945;DHT22;1482;51.398;7.128;2024-03-02T16:11:26;14.00;1.00
2945;DHT22;1482;51.398;7.128;2024-03-02T16:13:52;14.00;1.00
2945;DHT22;1482;51.398;7.128;2024-03-02T16:16:17;14.10;1.00
2945;DHT22;1482;51.398;7.128;2024-03-02T16:18:43;14.10;1.00
2945;DHT22;1482;51.398;7.128;2024-03-02T16:21:09;14.00;1.00
2945;DHT22;1482;51.398;7.128;2024-03-02T16:23:34;13.90;1.00
2945;DHT22;1482;51.398;7.128;2024-03-02T16:26:00;13.90;1.00
2945;DHT22;1482;51.398;7.128;2024-03-02T16:28:26;13.90;1.00
2945;DHT22;1482;51.398;7.128;2024-03-02T16:30:52;13.80;1.00